Hartland, North Dakota
Current Conditions -  °F | °C
As of 10:58 PM on Monday 22 Dec 2014 (Local Time) from KMIB Reporting Station
Freezing Drizzle Freezing Drizzle  
Wind Chill: 19°   Ceiling: 400
Heat Index: 30°   Visibility: 10mi
Dew Point: 30°   Wind: 14mph
Humidity: 100%   Direction: 350°N
Pressure: 29.84"   Gusts: NA
Location:  48.4159°N, 101.712°W
Report Text: KMIB 230458Z AUTO 35012KT 10SM -FZDZ OVC004 M01/M01 A2984 RMK AO2 RAB0423E0432FZUPB0422E0423 SLP131 P0000 T10131013 $
Loading
Personal Weather Stations






























Interactive Weather Map New forecast layout! Learn more

10-Day Weather Forecast

Advertisements
Track Severe Weather on mobile